createdAt,value
2023-03-04T00:01:25.206Z,15.63
2023-03-04T00:03:51.815Z,15.87
2023-03-04T00:06:18.304Z,16.17
2023-03-04T00:08:44.864Z,15.67
2023-03-04T00:11:11.461Z,16.40
2023-03-04T00:13:38.076Z,16.80
2023-03-04T00:16:04.781Z,16.53
2023-03-04T00:18:31.313Z,15.57
2023-03-04T00:20:57.817Z,15.40
2023-03-04T00:23:24.359Z,15.27
2023-03-04T00:25:55.563Z,15.60
2023-03-04T00:28:22.104Z,15.17
2023-03-04T00:30:48.789Z,14.23
2023-03-04T00:33:15.443Z,16.07
2023-03-04T00:35:42.123Z,15.30
2023-03-04T00:38:08.810Z,14.67
2023-03-04T00:40:35.798Z,15.00
2023-03-04T00:43:04.452Z,14.50
2023-03-04T00:45:31.250Z,14.70
2023-03-04T00:47:57.821Z,15.10
2023-03-04T00:50:24.372Z,15.07
2023-03-04T00:52:50.909Z,15.37
2023-03-04T00:55:17.466Z,14.53
2023-03-04T00:57:43.959Z,14.83
2023-03-04T01:00:11.196Z,15.07
2023-03-04T01:02:37.770Z,16.47
2023-03-04T01:05:04.546Z,16.30
2023-03-04T01:07:31.051Z,15.93
2023-03-04T01:09:57.582Z,15.57
2023-03-04T01:12:24.399Z,15.80
2023-03-04T01:14:50.926Z,16.13
2023-03-04T01:17:17.502Z,15.57
2023-03-04T01:19:43.993Z,14.93
2023-03-04T01:22:12.355Z,15.93
2023-03-04T01:24:38.926Z,15.53
2023-03-04T01:27:06.072Z,15.70
2023-03-04T01:29:32.596Z,15.37
2023-03-04T01:31:59.164Z,14.50
2023-03-04T01:34:25.692Z,16.10
2023-03-04T01:36:52.221Z,14.90
2023-03-04T01:39:18.760Z,15.30
2023-03-04T01:41:45.346Z,14.87
2023-03-04T01:44:12.163Z,14.67
2023-03-04T01:46:39.797Z,14.20
2023-03-04T01:49:06.881Z,14.07
2023-03-04T01:51:33.481Z,14.30
2023-03-04T01:53:59.982Z,13.63
2023-03-04T01:56:30.942Z,15.00
2023-03-04T01:59:15.071Z,13.67
2023-03-04T02:01:52.268Z,14.43
2023-03-04T02:04:20.809Z,13.57
2023-03-04T02:06:48.013Z,14.53
2023-03-04T02:09:15.316Z,13.83
2023-03-04T02:11:42.387Z,13.47
2023-03-04T02:14:09.891Z,13.83
2023-03-04T02:16:36.453Z,14.10
2023-03-04T02:19:04.472Z,14.37
2023-03-04T02:21:32.259Z,13.50
2023-03-04T02:24:17.857Z,14.17
2023-03-04T02:26:46.828Z,13.77
2023-03-04T02:29:14.870Z,14.43
2023-03-04T02:31:45.503Z,13.53
2023-03-04T02:34:13.465Z,14.33
2023-03-04T02:36:40.729Z,13.63
2023-03-04T02:39:13.722Z,13.57
2023-03-04T02:41:40.932Z,14.47
2023-03-04T02:44:21.519Z,14.10
2023-03-04T02:46:49.389Z,13.27
2023-03-04T02:49:16.046Z,13.83
2023-03-04T02:51:42.586Z,13.40
2023-03-04T02:54:16.214Z,13.17
2023-03-04T02:56:47.486Z,13.63
2023-03-04T02:59:14.529Z,13.57
2023-03-04T03:01:41.213Z,14.23
2023-03-04T03:04:07.972Z,14.03
2023-03-04T03:06:34.771Z,16.90
2023-03-04T03:09:01.485Z,14.27
2023-03-04T03:11:28.708Z,14.33
2023-03-04T03:13:56.641Z,13.53
2023-03-04T03:16:23.668Z,13.87
2023-03-04T03:18:50.503Z,13.47
2023-03-04T03:21:17.157Z,14.20
2023-03-04T03:23:44.541Z,13.77
2023-03-04T03:26:11.115Z,14.40
2023-03-04T03:28:37.607Z,13.77
2023-03-04T03:31:04.451Z,13.07
2023-03-04T03:33:31.237Z,13.67
2023-03-04T03:35:57.904Z,13.60
2023-03-04T03:38:24.432Z,16.42
2023-03-04T03:40:50.934Z,14.70
2023-03-04T03:43:17.625Z,13.77
2023-03-04T03:45:44.174Z,13.27
2023-03-04T03:48:10.705Z,14.60
2023-03-04T03:50:37.310Z,14.13
2023-03-04T03:53:03.813Z,13.80
2023-03-04T03:55:30.351Z,14.50
2023-03-04T03:57:56.884Z,13.73
2023-03-04T04:00:23.574Z,13.83
2023-03-04T04:02:50.258Z,11.90
2023-03-04T04:05:16.961Z,12.43
2023-03-04T04:07:43.568Z,12.00
2023-03-04T04:10:10.528Z,12.70
2023-03-04T04:12:37.156Z,11.43
2023-03-04T04:15:04.016Z,11.87
2023-03-04T04:17:30.579Z,11.00
2023-03-04T04:19:57.207Z,11.70
2023-03-04T04:22:23.724Z,10.20
2023-03-04T04:24:50.213Z,11.17
2023-03-04T04:27:16.775Z,10.70
2023-03-04T04:29:43.332Z,10.83
2023-03-04T04:32:10.093Z,9.70
2023-03-04T04:34:36.654Z,10.33
2023-03-04T04:37:03.187Z,10.63
2023-03-04T04:39:29.700Z,10.63
2023-03-04T04:41:56.315Z,9.97
2023-03-04T04:44:22.936Z,10.67
2023-03-04T04:46:49.505Z,9.03
2023-03-04T04:49:16.080Z,9.47
2023-03-04T04:51:42.744Z,9.43
2023-03-04T04:54:10.365Z,9.67
2023-03-04T04:56:36.929Z,9.30
2023-03-04T04:59:04.605Z,8.60
2023-03-04T05:01:31.361Z,9.10
2023-03-04T05:03:58.042Z,9.33
2023-03-04T05:06:24.871Z,9.70
2023-03-04T05:08:51.400Z,9.17
2023-03-04T05:11:19.535Z,8.87
2023-03-04T05:13:46.516Z,9.30
2023-03-04T05:16:13.634Z,8.97
2023-03-04T05:18:40.528Z,8.83
2023-03-04T05:21:07.130Z,8.70
2023-03-04T05:23:34.830Z,8.47
2023-03-04T05:26:01.773Z,8.30
2023-03-04T05:28:28.372Z,9.47
2023-03-04T05:30:54.954Z,8.30
2023-03-04T05:33:21.529Z,9.03
2023-03-04T05:35:49.850Z,9.20
2023-03-04T05:38:18.169Z,8.63
2023-03-04T05:40:45.001Z,8.63
2023-03-04T05:43:11.650Z,9.30
2023-03-04T05:45:38.746Z,8.63
2023-03-04T05:48:05.891Z,8.73
2023-03-04T05:50:33.089Z,8.57
2023-03-04T05:52:59.755Z,9.40
2023-03-04T05:55:27.783Z,9.67
2023-03-04T05:57:54.448Z,9.37
2023-03-04T06:00:20.966Z,9.03
2023-03-04T06:02:47.598Z,9.33
2023-03-04T06:05:15.454Z,9.67
2023-03-04T06:07:43.261Z,9.57
2023-03-04T06:10:10.718Z,9.33
2023-03-04T06:12:37.257Z,9.60
2023-03-04T06:15:03.945Z,9.73
2023-03-04T06:17:30.672Z,9.67
2023-03-04T06:19:57.203Z,9.07
2023-03-04T06:22:23.719Z,9.27
2023-03-04T06:24:50.250Z,9.27
2023-03-04T06:27:16.945Z,9.43
2023-03-04T06:29:43.502Z,9.50
2023-03-04T06:32:10.130Z,9.57
2023-03-04T06:34:37.321Z,8.83
2023-03-04T06:37:03.983Z,9.20
2023-03-04T06:39:30.543Z,9.30
2023-03-04T06:41:57.229Z,9.43
2023-03-04T06:44:23.802Z,8.50
2023-03-04T06:46:50.306Z,9.33
2023-03-04T06:49:16.854Z,9.53
2023-03-04T06:51:43.456Z,9.30
2023-03-04T06:54:10.295Z,9.07
2023-03-04T06:56:36.850Z,8.87
2023-03-04T06:59:03.338Z,8.40
2023-03-04T07:01:30.009Z,9.30
2023-03-04T07:03:57.159Z,8.40
2023-03-04T07:06:25.334Z,8.37
2023-03-04T07:08:52.094Z,9.30
2023-03-04T07:11:19.161Z,8.57
2023-03-04T07:13:46.573Z,8.60
2023-03-04T07:16:14.426Z,8.53
2023-03-04T07:18:40.983Z,8.27
2023-03-04T07:21:07.626Z,8.97
2023-03-04T07:23:34.559Z,8.33
2023-03-04T07:26:01.095Z,8.53
2023-03-04T07:28:27.679Z,8.70
2023-03-04T07:30:54.171Z,7.90
2023-03-04T07:33:20.683Z,8.17
2023-03-04T07:35:47.224Z,8.70
2023-03-04T07:38:13.726Z,7.90
2023-03-04T07:40:40.258Z,8.27
2023-03-04T07:43:06.790Z,7.83
2023-03-04T07:45:33.424Z,8.13
2023-03-04T07:48:00.055Z,8.98
2023-03-04T07:50:26.622Z,8.57
2023-03-04T07:52:53.493Z,7.87
2023-03-04T07:55:20.151Z,8.40
2023-03-04T07:57:47.510Z,7.53
2023-03-04T08:00:15.344Z,8.37
2023-03-04T08:02:41.966Z,8.50
2023-03-04T08:05:08.884Z,8.30
2023-03-04T08:07:36.030Z,7.97
2023-03-04T08:10:03.972Z,7.37
2023-03-04T08:12:30.508Z,8.47
2023-03-04T08:14:57.081Z,8.20
2023-03-04T08:17:24.776Z,8.70
2023-03-04T08:19:51.294Z,9.03
2023-03-04T08:22:17.962Z,7.93
2023-03-04T08:24:44.456Z,8.40
2023-03-04T08:27:10.979Z,8.07
2023-03-04T08:29:37.505Z,8.57
2023-03-04T08:32:04.381Z,8.70
2023-03-04T08:34:31.434Z,7.93
2023-03-04T08:36:57.926Z,8.17
2023-03-04T08:39:24.460Z,7.33
2023-03-04T08:41:51.011Z,8.00
2023-03-04T08:44:17.621Z,9.57
2023-03-04T08:46:44.159Z,7.97
2023-03-04T08:49:11.616Z,8.00
2023-03-04T08:51:38.444Z,7.77
2023-03-04T08:54:05.592Z,7.57
2023-03-04T08:56:32.228Z,8.27
2023-03-04T08:58:58.984Z,7.87
2023-03-04T09:01:25.586Z,8.07
2023-03-04T09:03:52.210Z,7.90
2023-03-04T09:06:19.013Z,7.53
2023-03-04T09:08:45.696Z,7.37
2023-03-04T09:11:12.845Z,7.53
2023-03-04T09:13:39.559Z,8.00
2023-03-04T09:16:09.401Z,7.70
2023-03-04T09:18:36.003Z,7.43
2023-03-04T09:21:02.606Z,7.10
2023-03-04T09:23:29.138Z,7.07
2023-03-04T09:25:55.725Z,7.30
2023-03-04T09:28:22.306Z,6.87
2023-03-04T09:30:48.812Z,7.00
2023-03-04T09:33:15.444Z,7.00
2023-03-04T09:35:42.208Z,6.30
2023-03-04T09:38:08.811Z,6.50
2023-03-04T09:40:43.127Z,6.90
2023-03-04T09:43:19.517Z,6.93
2023-03-04T09:45:53.533Z,6.47
2023-03-04T09:48:25.197Z,6.97
2023-03-04T09:51:11.930Z,6.73
2023-03-04T09:53:47.353Z,6.23
2023-03-04T09:56:14.443Z,6.73
2023-03-04T09:58:51.115Z,7.53
2023-03-04T10:01:23.119Z,7.63
2023-03-04T10:03:58.427Z,7.07
2023-03-04T10:06:25.028Z,8.40
2023-03-04T10:09:00.361Z,8.67
2023-03-04T10:11:32.790Z,7.03
2023-03-04T10:14:11.535Z,7.20
2023-03-04T10:16:40.958Z,7.00
2023-03-04T10:19:13.393Z,6.27
2023-03-04T10:21:42.905Z,5.50
2023-03-04T10:24:14.629Z,5.00
2023-03-04T10:26:43.655Z,4.87
2023-03-04T10:29:17.432Z,5.10
2023-03-04T10:31:44.527Z,3.83
2023-03-04T10:34:12.404Z,4.00
2023-03-04T10:36:48.003Z,5.33
2023-03-04T10:39:26.507Z,5.83
2023-03-04T10:41:57.642Z,5.40
2023-03-04T10:44:24.639Z,10.00
2023-03-04T10:46:53.096Z,6.00
2023-03-04T10:49:20.259Z,9.43
2023-03-04T10:52:05.579Z,6.77
2023-03-04T10:54:42.502Z,5.23
2023-03-04T10:57:16.686Z,6.13
2023-03-04T10:59:50.621Z,5.53
2023-03-04T11:02:17.150Z,4.87
2023-03-04T11:04:49.045Z,4.87
2023-03-04T11:07:15.720Z,4.20
2023-03-04T11:09:44.311Z,36.57
2023-03-04T11:12:13.107Z,6.73
2023-03-04T11:14:44.378Z,4.10
2023-03-04T11:17:22.781Z,3.77
2023-03-04T11:20:12.544Z,5.43
2023-03-04T11:22:39.211Z,4.00
2023-03-04T11:25:07.425Z,3.40
2023-03-04T11:27:40.075Z,3.87
2023-03-04T11:30:20.493Z,3.17
2023-03-04T11:32:49.902Z,3.90
2023-03-04T11:35:22.654Z,3.43
2023-03-04T11:38:04.276Z,2.67
2023-03-04T11:40:36.780Z,2.37
2023-03-04T11:43:06.745Z,3.10
2023-03-04T11:46:00.432Z,2.83
2023-03-04T11:48:42.093Z,3.40
2023-03-04T11:51:34.692Z,2.87
2023-03-04T11:54:19.817Z,3.20
2023-03-04T11:56:51.471Z,3.77
2023-03-04T11:59:41.114Z,4.50
2023-03-04T12:02:10.729Z,3.93
2023-03-04T12:04:43.027Z,3.03
2023-03-04T12:07:16.695Z,4.20
2023-03-04T12:09:50.559Z,7.00
2023-03-04T12:12:20.475Z,3.87
2023-03-04T12:14:48.976Z,5.37
2023-03-04T12:17:16.083Z,5.50
2023-03-04T12:19:57.682Z,3.40
2023-03-04T12:22:26.964Z,2.00
2023-03-04T12:25:02.331Z,2.37
2023-03-04T12:27:42.683Z,3.13
2023-03-04T12:30:14.950Z,2.30
2023-03-04T12:32:53.568Z,2.20
2023-03-04T12:35:24.016Z,2.67
2023-03-04T12:37:50.614Z,1.70
2023-03-04T12:40:20.582Z,1.77
2023-03-04T12:42:50.515Z,1.97
2023-03-04T12:45:35.730Z,1.97
2023-03-04T12:48:06.641Z,2.63
2023-03-04T12:50:42.747Z,2.83
2023-03-04T12:53:12.064Z,2.10
2023-03-04T12:55:39.811Z,2.43
2023-03-04T12:58:06.798Z,2.00
2023-03-04T13:00:52.888Z,1.90
2023-03-04T13:03:19.605Z,2.07
2023-03-04T13:05:46.144Z,2.20
2023-03-04T13:08:23.390Z,2.07
2023-03-04T13:10:50.792Z,1.90
2023-03-04T13:13:49.776Z,1.97
2023-03-04T13:16:19.086Z,2.50
2023-03-04T13:18:45.716Z,2.53
2023-03-04T13:21:12.192Z,2.17
2023-03-04T13:23:38.927Z,2.10
2023-03-04T13:26:16.759Z,1.80
2023-03-04T13:28:43.270Z,2.17
2023-03-04T13:31:09.837Z,2.10
2023-03-04T13:33:36.330Z,2.37
2023-03-04T13:36:08.921Z,1.73
2023-03-04T13:38:37.362Z,2.60
2023-03-04T13:41:21.875Z,2.50
2023-03-04T13:43:48.398Z,2.53
2023-03-04T13:46:21.654Z,2.37
2023-03-04T13:48:51.059Z,2.70
2023-03-04T13:51:29.944Z,2.43
2023-03-04T13:53:59.947Z,2.33
2023-03-04T13:56:32.843Z,2.43
2023-03-04T13:59:02.836Z,2.50
2023-03-04T14:01:31.881Z,2.50
2023-03-04T14:03:59.206Z,2.43
2023-03-04T14:06:27.546Z,2.70
2023-03-04T14:08:54.596Z,2.50
2023-03-04T14:11:26.330Z,2.30
2023-03-04T14:13:53.252Z,2.50
2023-03-04T14:16:21.256Z,3.50
2023-03-04T14:18:57.210Z,2.60
2023-03-04T14:21:23.785Z,4.03
2023-03-04T14:23:59.717Z,3.27
2023-03-04T14:26:26.251Z,2.53
2023-03-04T14:28:56.679Z,2.83
2023-03-04T14:31:24.750Z,3.10
2023-03-04T14:33:54.262Z,3.00
2023-03-04T14:36:21.817Z,3.80
2023-03-04T14:38:55.444Z,2.97
2023-03-04T14:41:26.721Z,2.90
2023-03-04T14:43:59.242Z,2.73
2023-03-04T14:46:28.935Z,2.73
2023-03-04T14:48:55.747Z,3.17
2023-03-04T14:51:29.750Z,3.07
2023-03-04T14:53:56.468Z,4.00
2023-03-04T14:56:31.316Z,3.10
2023-03-04T14:58:58.822Z,3.60
2023-03-04T15:01:34.388Z,3.97
2023-03-04T15:04:03.175Z,4.30
2023-03-04T15:06:31.430Z,3.40
2023-03-04T15:09:03.825Z,3.07
2023-03-04T15:11:32.776Z,4.13
2023-03-04T15:13:59.930Z,3.80
2023-03-04T15:16:28.082Z,5.17
2023-03-04T15:18:56.097Z,3.77
2023-03-04T15:21:49.041Z,4.07
2023-03-04T15:24:15.627Z,3.77
2023-03-04T15:26:43.128Z,4.17
2023-03-04T15:29:17.499Z,6.50
2023-03-04T15:31:44.605Z,5.90
2023-03-04T15:34:17.811Z,5.10
2023-03-04T15:36:45.566Z,3.60
2023-03-04T15:39:13.415Z,4.03
2023-03-04T15:41:39.980Z,4.30
2023-03-04T15:44:06.498Z,7.22
2023-03-04T15:46:33.213Z,8.43
2023-03-04T15:48:59.740Z,5.10
2023-03-04T15:51:26.934Z,3.60
2023-03-04T15:53:58.462Z,4.70
2023-03-04T15:56:31.865Z,4.17
2023-03-04T15:59:10.999Z,3.70
2023-03-04T16:01:37.855Z,3.97
2023-03-04T16:04:04.579Z,3.53
2023-03-04T16:06:31.918Z,4.53
2023-03-04T16:08:58.957Z,4.87
2023-03-04T16:11:26.807Z,3.83
2023-03-04T16:13:53.491Z,3.30
2023-03-04T16:16:20.425Z,3.43
2023-03-04T16:18:47.395Z,3.27
2023-03-04T16:21:18.697Z,3.90
2023-03-04T16:23:46.650Z,3.77
2023-03-04T16:26:15.037Z,3.70
2023-03-04T16:28:41.994Z,2.87
2023-03-04T16:31:10.615Z,3.80
2023-03-04T16:33:37.189Z,3.20
2023-03-04T16:36:06.505Z,3.90
2023-03-04T16:38:34.513Z,3.27
2023-03-04T16:41:03.903Z,3.57
2023-03-04T16:43:30.546Z,3.90
2023-03-04T16:45:57.077Z,2.93
2023-03-04T16:48:23.650Z,3.40
2023-03-04T16:50:50.209Z,3.20
2023-03-04T16:53:32.372Z,3.63
2023-03-04T16:56:01.358Z,3.10
2023-03-04T16:58:28.106Z,3.40
2023-03-04T17:00:54.903Z,4.10
2023-03-04T17:03:21.489Z,3.40
2023-03-04T17:05:47.987Z,3.80
2023-03-04T17:08:14.556Z,3.80
2023-03-04T17:10:41.289Z,3.30
2023-03-04T17:13:08.702Z,3.47
2023-03-04T17:15:35.214Z,4.57
2023-03-04T17:18:01.823Z,4.00
2023-03-04T17:20:28.804Z,3.50
2023-03-04T17:22:55.347Z,3.50
2023-03-04T17:25:21.934Z,3.57
2023-03-04T17:27:48.495Z,4.30
2023-03-04T17:30:15.136Z,4.43
2023-03-04T17:32:41.777Z,4.80
2023-03-04T17:35:09.061Z,4.53
2023-03-04T17:37:35.861Z,4.90
2023-03-04T17:40:03.854Z,5.13
2023-03-04T17:42:30.670Z,4.60
2023-03-04T17:44:57.216Z,6.40
2023-03-04T17:47:24.115Z,5.23
2023-03-04T17:49:50.672Z,4.70
2023-03-04T17:52:17.305Z,5.07
2023-03-04T17:54:44.883Z,4.40
2023-03-04T17:57:11.431Z,4.03
2023-03-04T17:59:38.180Z,3.80
2023-03-04T18:02:05.641Z,3.97
2023-03-04T18:04:32.271Z,3.90
2023-03-04T18:06:59.059Z,4.20
2023-03-04T18:09:25.719Z,4.43
2023-03-04T18:11:52.573Z,3.50
2023-03-04T18:14:19.158Z,4.20
2023-03-04T18:16:45.732Z,4.17
2023-03-04T18:19:12.417Z,4.20
2023-03-04T18:21:38.933Z,4.40
2023-03-04T18:24:05.612Z,3.93
2023-03-04T18:26:32.209Z,3.90
2023-03-04T18:28:58.740Z,4.03
2023-03-04T18:31:29.509Z,3.30
2023-03-04T18:33:57.973Z,3.50
2023-03-04T18:36:24.549Z,3.43
2023-03-04T18:38:51.100Z,4.80
2023-03-04T18:41:17.666Z,4.17
2023-03-04T18:43:44.314Z,3.60
2023-03-04T18:46:16.608Z,4.30
2023-03-04T18:48:48.052Z,3.73
2023-03-04T18:51:14.701Z,3.73
2023-03-04T18:53:41.323Z,5.07
2023-03-04T18:56:12.203Z,4.10
2023-03-04T18:58:40.091Z,3.50
2023-03-04T19:01:09.784Z,5.43
2023-03-04T19:03:37.684Z,3.30
2023-03-04T19:06:05.249Z,3.47
2023-03-04T19:08:31.781Z,5.90
2023-03-04T19:10:59.058Z,5.27
2023-03-04T19:13:25.781Z,4.73
2023-03-04T19:15:53.166Z,4.07
2023-03-04T19:18:20.105Z,4.30
2023-03-04T19:20:46.701Z,4.67
2023-03-04T19:23:14.320Z,4.50
2023-03-04T19:25:41.269Z,4.30
2023-03-04T19:28:08.194Z,4.70
2023-03-04T19:30:38.478Z,3.77
2023-03-04T19:33:05.234Z,3.50
2023-03-04T19:35:34.763Z,4.03
2023-03-04T19:38:01.482Z,4.10
2023-03-04T19:40:28.444Z,4.27
2023-03-04T19:42:56.478Z,4.03
2023-03-04T19:45:23.133Z,3.73
2023-03-04T19:47:49.744Z,4.00
2023-03-04T19:50:17.191Z,3.83
2023-03-04T19:52:43.908Z,3.93
2023-03-04T19:55:12.784Z,3.57
2023-03-04T19:57:42.222Z,4.43
2023-03-04T20:00:10.175Z,4.23
2023-03-04T20:02:36.797Z,3.77
2023-03-04T20:05:04.221Z,4.13
2023-03-04T20:07:30.752Z,4.60
2023-03-04T20:09:57.329Z,5.23
2023-03-04T20:12:23.959Z,3.67
2023-03-04T20:14:53.176Z,4.00
2023-03-04T20:17:19.813Z,3.77
2023-03-04T20:19:47.514Z,4.13
2023-03-04T20:22:14.186Z,4.90
2023-03-04T20:24:40.740Z,4.23
2023-03-04T20:27:07.303Z,3.90
2023-03-04T20:29:34.048Z,4.63
2023-03-04T20:32:01.528Z,3.70
2023-03-04T20:34:28.300Z,3.80
2023-03-04T20:36:54.889Z,4.23
2023-03-04T20:39:29.053Z,3.73
2023-03-04T20:41:57.205Z,3.50
2023-03-04T20:44:23.792Z,4.20
2023-03-04T20:46:51.255Z,6.00
2023-03-04T20:49:24.040Z,3.70
2023-03-04T20:51:51.621Z,3.90
2023-03-04T20:54:18.195Z,3.87
2023-03-04T20:56:44.767Z,4.47
2023-03-04T20:59:11.865Z,4.27
2023-03-04T21:01:39.444Z,3.70
2023-03-04T21:04:06.319Z,4.57
2023-03-04T21:06:33.488Z,3.83
2023-03-04T21:09:01.481Z,4.10
2023-03-04T21:11:28.111Z,3.57
2023-03-04T21:13:57.529Z,3.90
2023-03-04T21:16:25.866Z,3.93
2023-03-04T21:18:53.336Z,3.83
2023-03-04T21:21:22.227Z,4.80
2023-03-04T21:23:52.578Z,3.77
2023-03-04T21:26:19.425Z,4.33
2023-03-04T21:28:46.740Z,4.10
2023-03-04T21:31:16.081Z,3.50
2023-03-04T21:33:42.636Z,4.17
2023-03-04T21:36:09.727Z,3.70
2023-03-04T21:38:38.568Z,4.20
2023-03-04T21:41:05.180Z,4.00
2023-03-04T21:43:31.837Z,3.97
2023-03-04T21:45:58.790Z,4.10
2023-03-04T21:48:25.597Z,4.23
2023-03-04T21:50:53.490Z,4.33
2023-03-04T21:53:23.577Z,3.83
2023-03-04T21:55:51.032Z,3.73
2023-03-04T21:58:17.550Z,4.10
2023-03-04T22:00:44.236Z,3.80
2023-03-04T22:03:10.935Z,3.90
2023-03-04T22:05:41.950Z,4.57
2023-03-04T22:08:08.579Z,4.00
2023-03-04T22:10:36.917Z,3.80
2023-03-04T22:13:03.518Z,4.03
2023-03-04T22:15:30.088Z,4.23
2023-03-04T22:17:56.710Z,4.60
2023-03-04T22:20:25.030Z,3.93
2023-03-04T22:22:51.572Z,3.80
2023-03-04T22:25:18.162Z,4.13
2023-03-04T22:27:44.879Z,5.17
2023-03-04T22:30:11.676Z,3.50
2023-03-04T22:32:38.281Z,4.13
2023-03-04T22:35:04.973Z,4.20
2023-03-04T22:37:31.519Z,4.70
2023-03-04T22:39:58.069Z,3.77
2023-03-04T22:42:24.572Z,4.10
2023-03-04T22:44:51.084Z,4.53
2023-03-04T22:47:17.598Z,4.30
2023-03-04T22:49:44.891Z,4.13
2023-03-04T22:52:11.392Z,4.07
2023-03-04T22:54:37.906Z,3.80
2023-03-04T22:57:04.422Z,3.67
2023-03-04T22:59:30.931Z,4.27
2023-03-04T23:01:57.808Z,4.00
2023-03-04T23:04:24.374Z,3.57
2023-03-04T23:06:50.901Z,3.60
2023-03-04T23:09:17.444Z,4.00
2023-03-04T23:11:44.026Z,4.13
2023-03-04T23:14:11.851Z,4.03
2023-03-04T23:16:42.480Z,4.20
2023-03-04T23:19:10.959Z,3.97
2023-03-04T23:21:37.820Z,3.80
2023-03-04T23:24:05.232Z,4.03
2023-03-04T23:26:33.003Z,4.10
2023-03-04T23:29:01.555Z,3.50
2023-03-04T23:31:28.629Z,3.30
2023-03-04T23:33:58.283Z,3.93
2023-03-04T23:36:26.001Z,3.70
2023-03-04T23:38:53.047Z,4.07
2023-03-04T23:41:20.867Z,3.60
2023-03-04T23:43:47.950Z,3.73
2023-03-04T23:46:14.632Z,3.87
2023-03-04T23:48:43.250Z,4.00
2023-03-04T23:51:10.051Z,3.87
2023-03-04T23:53:38.949Z,4.40
2023-03-04T23:56:09.539Z,3.63
2023-03-04T23:58:36.090Z,3.47
